Time;durP1;ratioP1;P1;durP2;ratioP2;P2;SDS_P1;SDS_P2;PMS_P1;PMS_P2;Temp;Humidity;BMP_temperature;BMP_pressure;BME280_temperature;BME280_humidity;BME280_pressure;Samples;Min_cycle;Max_cycle;Signal;HPM_P1;HPM_P2
2023/09/20 00:01:52;;;;;;;2.50;2.30;;;16.80;99.90;;;;;;5039998;28;20174;-76
2023/09/20 00:04:21;;;;;;;3.73;2.20;;;16.80;99.90;;;;;;5038567;28;20169;-80
2023/09/20 00:06:47;;;;;;;3.53;2.13;;;16.70;99.90;;;;;;5038637;28;20200;-77
2023/09/20 00:09:15;;;;;;;2.23;2.00;;;16.70;99.90;;;;;;5041575;28;20258;-77
2023/09/20 00:11:43;;;;;;;1.80;1.70;;;16.80;99.90;;;;;;5039864;28;20196;-79
2023/09/20 00:14:08;;;;;;;2.23;2.10;;;16.80;99.90;;;;;;5037475;28;20213;-77
2023/09/20 00:16:34;;;;;;;5.37;1.83;;;16.70;99.90;;;;;;5021794;28;20180;-78
2023/09/20 00:19:00;;;;;;;2.30;2.20;;;16.70;99.90;;;;;;5040331;28;20169;-79
2023/09/20 00:21:26;;;;;;;2.50;1.87;;;16.70;99.90;;;;;;5041874;28;20177;-78
2023/09/20 00:23:52;;;;;;;1.70;1.70;;;16.70;99.90;;;;;;5041542;28;20169;-76
2023/09/20 00:26:20;;;;;;;1.97;1.87;;;16.70;99.90;;;;;;5052924;28;20227;-80
2023/09/20 00:28:49;;;;;;;1.90;1.80;;;16.70;99.90;;;;;;5056682;28;20186;-81
2023/09/20 00:31:17;;;;;;;5.00;2.30;;;16.70;99.90;;;;;;5040197;28;20176;-79
2023/09/20 00:33:44;;;;;;;2.17;2.03;;;16.70;99.90;;;;;;5039328;28;20229;-78
2023/09/20 00:36:16;;;;;;;1.97;1.77;;;16.70;99.90;;;;;;5042930;28;20210;-78
2023/09/20 00:38:45;;;;;;;2.10;2.00;;;16.60;99.90;;;;;;5047342;28;20283;-81
2023/09/20 00:41:11;;;;;;;2.20;2.00;;;16.50;99.90;;;;;;5026727;28;20176;-81
2023/09/20 00:43:37;;;;;;;2.10;1.90;;;16.60;99.90;;;;;;5054146;28;20164;-79
2023/09/20 00:46:04;;;;;;;2.00;1.90;;;16.70;99.90;;;;;;5028355;28;20212;-77
2023/09/20 00:48:31;;;;;;;2.07;1.90;;;16.70;99.90;;;;;;5020898;28;20176;-80
2023/09/20 00:50:57;;;;;;;2.20;2.00;;;16.60;99.90;;;;;;5038241;28;20576;-78
2023/09/20 00:53:23;;;;;;;2.23;2.07;;;16.60;99.90;;;;;;5037497;28;20177;-79
2023/09/20 00:55:50;;;;;;;2.50;2.30;;;16.60;99.90;;;;;;5023113;28;20192;-81
2023/09/20 00:58:17;;;;;;;4.37;2.00;;;16.60;99.90;;;;;;5048091;28;20164;-79
2023/09/20 01:00:43;;;;;;;2.70;2.50;;;16.60;99.90;;;;;;5036419;28;20214;-82
2023/09/20 01:03:11;;;;;;;2.20;2.10;;;16.50;99.90;;;;;;5047213;28;20177;-79
2023/09/20 01:05:37;;;;;;;2.20;2.10;;;16.40;99.90;;;;;;5040579;28;20642;-79
2023/09/20 01:08:06;;;;;;;2.20;2.00;;;16.40;99.90;;;;;;5036284;28;20184;-78
2023/09/20 01:10:31;;;;;;;2.97;2.17;;;16.40;99.90;;;;;;5036215;28;20168;-80
2023/09/20 01:12:59;;;;;;;2.43;2.20;;;16.50;99.90;;;;;;5036446;28;20185;-81
2023/09/20 01:15:26;;;;;;;2.13;1.80;;;16.60;99.90;;;;;;5018522;28;20194;-82
2023/09/20 01:17:55;;;;;;;2.30;2.10;;;16.60;99.90;;;;;;5051180;28;20180;-78
2023/09/20 01:20:24;;;;;;;4.80;2.07;;;16.70;99.90;;;;;;5018519;28;20263;-80
2023/09/20 01:22:51;;;;;;;3.13;2.10;;;16.70;99.90;;;;;;5037622;28;20179;-80
2023/09/20 01:25:22;;;;;;;2.40;2.20;;;16.70;99.90;;;;;;5040129;28;20221;-80
2023/09/20 01:27:55;;;;;;;2.53;2.30;;;16.80;99.90;;;;;;5048814;28;20255;-81
2023/09/20 01:30:21;;;;;;;2.30;1.97;;;16.80;99.90;;;;;;5060209;28;20153;-80
2023/09/20 01:32:47;;;;;;;2.37;1.97;;;16.70;99.90;;;;;;5055929;28;20640;-80
2023/09/20 01:35:16;;;;;;;2.57;2.00;;;16.70;99.90;;;;;;5054303;28;20212;-78
2023/09/20 01:37:42;;;;;;;3.43;2.10;;;16.80;99.90;;;;;;5056004;28;20511;-80
2023/09/20 01:40:18;;;;;;;2.57;2.27;;;16.80;99.90;;;;;;5055913;28;20176;-80
2023/09/20 01:42:48;;;;;;;2.23;2.10;;;16.80;99.90;;;;;;5039662;28;20202;-80
2023/09/20 01:45:18;;;;;;;2.20;2.10;;;16.80;99.90;;;;;;5057070;28;20177;-80
2023/09/20 01:47:49;;;;;;;2.60;2.40;;;16.70;99.90;;;;;;5056332;28;20527;-79
2023/09/20 01:50:20;;;;;;;1.97;1.87;;;16.60;99.90;;;;;;5056966;28;20757;-79
2023/09/20 01:52:57;;;;;;;2.53;2.10;;;16.50;99.90;;;;;;5056073;28;20164;-80
2023/09/20 01:55:27;;;;;;;2.27;2.07;;;16.60;99.90;;;;;;5054990;28;20174;-81
2023/09/20 01:57:55;;;;;;;1.97;1.83;;;16.60;99.90;;;;;;5037633;28;20184;-81
2023/09/20 02:00:24;;;;;;;2.97;2.37;;;16.70;99.90;;;;;;5055041;28;20174;-80
2023/09/20 02:02:51;;;;;;;2.70;2.10;;;16.70;99.90;;;;;;5055565;28;20168;-81
2023/09/20 02:05:17;;;;;;;3.23;2.30;;;16.60;99.90;;;;;;5054645;28;20168;-80
2023/09/20 02:07:48;;;;;;;2.20;2.00;;;16.60;99.90;;;;;;5054629;28;20212;-79
2023/09/20 02:10:16;;;;;;;2.97;2.60;;;16.50;99.90;;;;;;5058199;28;20168;-80
2023/09/20 02:12:56;;;;;;;2.43;2.10;;;16.50;99.90;;;;;;5051481;28;20177;-78
2023/09/20 02:15:27;;;;;;;2.90;2.40;;;16.30;99.90;;;;;;5055366;28;20165;-79
2023/09/20 02:17:53;;;;;;;2.57;2.37;;;16.30;99.90;;;;;;5061675;28;20145;-79
2023/09/20 02:20:20;;;;;;;2.60;2.40;;;16.30;99.90;;;;;;5071995;28;20227;-81
2023/09/20 02:22:47;;;;;;;2.80;2.20;;;16.20;99.90;;;;;;5064684;28;20249;-80
2023/09/20 02:25:14;;;;;;;3.13;2.37;;;16.30;99.90;;;;;;5054972;28;20183;-80
2023/09/20 02:27:44;;;;;;;2.77;2.53;;;16.40;99.90;;;;;;5054388;28;20235;-80
2023/09/20 02:30:19;;;;;;;3.43;2.40;;;16.40;99.90;;;;;;5054897;28;20175;-80
2023/09/20 02:32:53;;;;;;;3.43;2.53;;;16.30;99.90;;;;;;5054894;28;20657;-79
2023/09/20 02:35:19;;;;;;;4.00;2.27;;;16.30;99.90;;;;;;5055179;28;20166;-79
2023/09/20 02:37:46;;;;;;;2.97;2.30;;;16.30;99.90;;;;;;5054942;28;20249;-79
2023/09/20 02:40:13;;;;;;;4.23;2.40;;;16.30;99.90;;;;;;5055077;28;20179;-80
2023/09/20 02:42:44;;;;;;;2.80;2.60;;;16.20;99.90;;;;;;5055016;28;20665;-78
2023/09/20 02:45:12;;;;;;;3.23;2.60;;;16.20;99.90;;;;;;5054983;28;20171;-80
2023/09/20 02:47:39;;;;;;;2.90;2.00;;;16.10;99.90;;;;;;5054952;28;20207;-81
2023/09/20 02:50:07;;;;;;;2.70;2.50;;;16.10;99.90;;;;;;5058819;28;20191;-81
2023/09/20 02:52:35;;;;;;;3.77;2.13;;;16.00;99.90;;;;;;5068557;28;20174;-80
2023/09/20 02:55:06;;;;;;;3.43;2.27;;;16.00;99.90;;;;;;5070131;28;20172;-81
2023/09/20 02:57:38;;;;;;;2.67;2.50;;;16.00;99.90;;;;;;5067938;28;20156;-80
2023/09/20 03:00:16;;;;;;;2.47;2.27;;;15.90;99.90;;;;;;5068947;28;20172;-81
2023/09/20 03:02:47;;;;;;;2.40;2.20;;;15.90;99.90;;;;;;5076658;28;20207;-80
2023/09/20 03:05:17;;;;;;;5.57;2.73;;;15.90;99.90;;;;;;5080011;28;20164;-80
2023/09/20 03:07:47;;;;;;;2.97;2.13;;;15.80;99.90;;;;;;5074475;28;20549;-79
2023/09/20 03:10:15;;;;;;;2.63;2.30;;;15.90;99.90;;;;;;5061154;28;20222;-80
2023/09/20 03:12:43;;;;;;;2.10;2.00;;;15.90;99.90;;;;;;5067098;28;20180;-80
2023/09/20 03:15:23;;;;;;;2.60;2.40;;;15.80;99.90;;;;;;5069252;28;20203;-80
2023/09/20 03:18:03;;;;;;;3.03;2.23;;;15.80;99.90;;;;;;5055747;28;20277;-80
2023/09/20 03:20:35;;;;;;;4.07;2.33;;;15.70;99.90;;;;;;5039745;28;20178;-80
2023/09/20 03:23:04;;;;;;;2.53;2.33;;;15.70;99.90;;;;;;5058540;28;20194;-78
2023/09/20 03:25:36;;;;;;;2.43;2.23;;;15.60;99.90;;;;;;5058006;28;20178;-78
2023/09/20 03:28:03;;;;;;;2.67;2.47;;;15.60;99.90;;;;;;5077612;28;20242;-80
2023/09/20 03:30:31;;;;;;;2.30;2.07;;;15.70;99.90;;;;;;5075601;28;20183;-81
2023/09/20 03:32:58;;;;;;;3.33;2.30;;;15.80;99.90;;;;;;5076375;28;20167;-79
2023/09/20 03:35:24;;;;;;;2.33;2.17;;;15.80;99.90;;;;;;5077409;28;20228;-77
2023/09/20 03:37:50;;;;;;;3.43;2.50;;;15.70;99.90;;;;;;5077616;28;20183;-80
2023/09/20 03:40:17;;;;;;;2.13;2.03;;;15.70;99.90;;;;;;5077622;28;20181;-79
2023/09/20 03:42:48;;;;;;;2.43;2.33;;;15.70;99.90;;;;;;5080205;28;20175;-78
2023/09/20 03:45:15;;;;;;;2.63;2.43;;;15.70;99.90;;;;;;5093423;28;20163;-79
2023/09/20 03:47:42;;;;;;;2.03;1.90;;;15.70;99.90;;;;;;5085749;28;20201;-78
2023/09/20 03:50:12;;;;;;;2.73;2.30;;;15.70;99.90;;;;;;5078560;28;20171;-78
2023/09/20 03:52:38;;;;;;;2.70;2.50;;;15.60;99.90;;;;;;5077010;28;20171;-78
2023/09/20 03:55:05;;;;;;;2.53;2.33;;;15.60;99.90;;;;;;5077226;28;20170;-80
2023/09/20 03:57:32;;;;;;;2.50;2.30;;;15.60;99.90;;;;;;5086184;28;20166;-80
2023/09/20 03:59:58;;;;;;;4.13;2.50;;;15.80;99.90;;;;;;5080761;28;20178;-78
2023/09/20 04:02:24;;;;;;;2.67;2.37;;;15.70;99.90;;;;;;5076944;28;20167;-81
2023/09/20 04:04:51;;;;;;;2.73;2.50;;;15.80;99.90;;;;;;5077236;28;20182;-78
2023/09/20 04:07:17;;;;;;;4.43;2.87;;;15.70;99.90;;;;;;5077030;28;20199;-80
2023/09/20 04:09:47;;;;;;;3.47;2.33;;;15.60;99.90;;;;;;5082873;28;20189;-80
2023/09/20 04:12:13;;;;;;;2.43;2.10;;;15.70;99.90;;;;;;5087558;28;20395;-80
2023/09/20 04:14:41;;;;;;;2.60;2.23;;;15.80;99.90;;;;;;5075625;28;20188;-79
2023/09/20 04:17:08;;;;;;;2.80;2.60;;;15.70;99.90;;;;;;5094807;28;20161;-80
2023/09/20 04:19:34;;;;;;;3.03;2.27;;;15.50;99.90;;;;;;5080086;28;20652;-80
2023/09/20 04:22:04;;;;;;;4.30;2.50;;;15.50;99.90;;;;;;5079672;28;20175;-80
2023/09/20 04:24:33;;;;;;;2.70;2.50;;;15.50;99.90;;;;;;5076624;28;20162;-80
2023/09/20 04:27:03;;;;;;;2.20;2.10;;;15.50;99.90;;;;;;5075442;28;20238;-80
2023/09/20 04:29:31;;;;;;;2.57;2.37;;;15.50;99.90;;;;;;5091643;28;20220;-80
2023/09/20 04:31:57;;;;;;;2.53;2.33;;;15.60;99.90;;;;;;5081083;28;20239;-79
2023/09/20 04:34:23;;;;;;;2.83;2.50;;;15.50;99.90;;;;;;5075800;28;20184;-80
2023/09/20 04:36:51;;;;;;;2.53;2.33;;;15.50;99.90;;;;;;5077210;28;20174;-79
2023/09/20 04:39:17;;;;;;;2.23;2.10;;;15.50;99.90;;;;;;5080068;28;20208;-79
2023/09/20 04:41:43;;;;;;;2.40;2.20;;;15.60;99.90;;;;;;5083638;28;20183;-79
2023/09/20 04:44:09;;;;;;;4.80;2.90;;;15.50;99.90;;;;;;5077680;28;20170;-78
2023/09/20 04:46:35;;;;;;;2.13;2.03;;;15.50;99.90;;;;;;5078323;28;20247;-80
2023/09/20 04:49:05;;;;;;;2.53;2.33;;;15.50;99.90;;;;;;5073687;28;20237;-77
2023/09/20 04:51:31;;;;;;;3.33;2.73;;;15.50;99.90;;;;;;5075973;28;20178;-78
2023/09/20 04:53:58;;;;;;;3.97;2.40;;;15.50;99.90;;;;;;5078856;28;20206;-80
2023/09/20 04:56:27;;;;;;;2.47;2.27;;;15.50;99.90;;;;;;5084644;28;20225;-79
2023/09/20 04:58:53;;;;;;;5.40;2.43;;;15.50;99.90;;;;;;5092131;28;20176;-77
2023/09/20 05:01:19;;;;;;;3.60;2.43;;;15.50;99.90;;;;;;5080394;28;20186;-78
2023/09/20 05:03:45;;;;;;;2.60;2.43;;;15.50;99.90;;;;;;5076606;28;20254;-80
2023/09/20 05:06:10;;;;;;;3.63;2.20;;;15.50;99.90;;;;;;5076126;28;20208;-79
2023/09/20 05:08:39;;;;;;;2.40;2.20;;;15.50;99.90;;;;;;5075882;28;20584;-80
2023/09/20 05:11:04;;;;;;;5.33;2.50;;;15.50;99.90;;;;;;5075032;28;20169;-79
2023/09/20 05:13:31;;;;;;;2.93;2.67;;;15.40;99.90;;;;;;5079082;28;20181;-79
2023/09/20 05:15:56;;;;;;;5.53;2.70;;;15.60;99.90;;;;;;5080303;28;20180;-80
2023/09/20 05:18:22;;;;;;;2.60;2.40;;;15.60;99.90;;;;;;5090268;28;20179;-79
2023/09/20 05:20:49;;;;;;;2.87;2.20;;;15.60;99.90;;;;;;5080169;28;20233;-81
2023/09/20 05:23:15;;;;;;;2.50;2.30;;;15.60;99.90;;;;;;5075543;28;20182;-79
2023/09/20 05:25:40;;;;;;;3.07;2.37;;;15.60;99.90;;;;;;5072684;28;20175;-78
2023/09/20 05:28:06;;;;;;;4.07;2.70;;;15.50;99.90;;;;;;5061819;28;20201;-77
2023/09/20 05:30:33;;;;;;;3.33;2.53;;;15.50;99.90;;;;;;5071673;28;20186;-78
2023/09/20 05:32:59;;;;;;;2.70;2.50;;;15.40;99.90;;;;;;5059000;28;20176;-77
2023/09/20 05:35:27;;;;;;;3.67;2.67;;;15.50;99.90;;;;;;5067196;28;20173;-79
2023/09/20 05:37:53;;;;;;;4.03;2.40;;;15.50;99.90;;;;;;5055820;28;20176;-77
2023/09/20 05:40:19;;;;;;;3.23;2.50;;;15.70;99.90;;;;;;5055344;28;20711;-79
2023/09/20 05:42:46;;;;;;;3.97;2.43;;;15.80;99.90;;;;;;5055183;28;20207;-79
2023/09/20 05:45:13;;;;;;;3.53;2.50;;;15.80;99.90;;;;;;5055258;28;20178;-80
2023/09/20 05:47:40;;;;;;;2.80;2.53;;;15.90;99.90;;;;;;5054662;28;20221;-79
2023/09/20 05:50:16;;;;;;;3.93;2.30;;;15.90;99.90;;;;;;5056490;28;20171;-77
2023/09/20 05:52:43;;;;;;;2.60;2.40;;;15.90;99.90;;;;;;5055833;28;20156;-80
2023/09/20 05:55:14;;;;;;;2.73;2.53;;;16.10;99.90;;;;;;5055018;28;20241;-78
2023/09/20 05:57:43;;;;;;;2.60;2.30;;;16.20;99.90;;;;;;5054929;28;20185;-76
2023/09/20 06:00:18;;;;;;;6.90;2.77;;;16.20;99.90;;;;;;5057316;28;20172;-79
2023/09/20 06:02:45;;;;;;;2.50;2.30;;;16.30;99.90;;;;;;5068827;28;20155;-78
2023/09/20 06:05:11;;;;;;;3.57;2.93;;;16.40;99.90;;;;;;5064514;28;20223;-79
2023/09/20 06:07:38;;;;;;;3.30;2.60;;;16.40;99.90;;;;;;5066378;28;20199;-78
2023/09/20 06:10:04;;;;;;;4.70;2.60;;;16.30;99.90;;;;;;5044162;28;20634;-77
2023/09/20 06:12:31;;;;;;;2.73;2.53;;;16.30;99.90;;;;;;5059581;28;20651;-80
2023/09/20 06:14:57;;;;;;;5.43;3.03;;;16.20;99.90;;;;;;5057407;28;20201;-79
2023/09/20 06:17:23;;;;;;;3.60;2.70;;;16.20;99.90;;;;;;5059564;28;20578;-81
2023/09/20 06:19:49;;;;;;;3.60;2.40;;;16.30;99.90;;;;;;5057055;28;20195;-79
2023/09/20 06:22:16;;;;;;;3.40;2.87;;;16.30;99.90;;;;;;5062054;28;20196;-79
2023/09/20 06:24:48;;;;;;;2.77;2.33;;;16.30;99.90;;;;;;5058776;28;20179;-79
2023/09/20 06:27:14;;;;;;;4.33;3.00;;;16.40;99.90;;;;;;5063272;28;20237;-80
2023/09/20 06:29:39;;;;;;;2.87;2.60;;;16.50;99.90;;;;;;5074403;28;20178;-80
2023/09/20 06:32:05;;;;;;;3.63;2.77;;;16.50;99.90;;;;;;5075926;28;20253;-81
2023/09/20 06:34:31;;;;;;;3.03;2.73;;;16.60;99.90;;;;;;5073961;28;20173;-80
2023/09/20 06:36:57;;;;;;;3.33;2.50;;;16.70;99.90;;;;;;5074224;28;20171;-81
2023/09/20 06:39:25;;;;;;;2.67;2.50;;;16.70;99.90;;;;;;5079028;28;20250;-78
2023/09/20 06:41:51;;;;;;;4.83;2.43;;;16.70;99.90;;;;;;5082526;28;20177;-80
2023/09/20 06:44:17;;;;;;;6.40;3.50;;;16.70;99.90;;;;;;5079539;28;20150;-79
2023/09/20 06:46:43;;;;;;;6.77;3.43;;;16.70;99.90;;;;;;5097436;28;20347;-80
2023/09/20 06:49:09;;;;;;;3.80;3.50;;;16.80;99.90;;;;;;5096415;28;20155;-79
2023/09/20 06:51:36;;;;;;;4.47;3.50;;;16.80;99.90;;;;;;5096176;28;20186;-78
2023/09/20 06:54:03;;;;;;;4.60;3.60;;;16.80;99.90;;;;;;5095467;28;20242;-81
2023/09/20 06:56:29;;;;;;;6.63;3.73;;;16.80;99.90;;;;;;5095100;28;20164;-80
2023/09/20 06:58:55;;;;;;;3.47;3.17;;;16.90;99.90;;;;;;5097599;28;20178;-81
2023/09/20 07:01:25;;;;;;;4.03;3.30;;;16.90;99.90;;;;;;5096868;28;20178;-80
2023/09/20 07:03:52;;;;;;;3.73;3.00;;;17.00;99.90;;;;;;5097693;28;20151;-83
2023/09/20 07:06:18;;;;;;;3.73;3.30;;;17.00;99.90;;;;;;5097148;28;20222;-80
2023/09/20 07:08:45;;;;;;;3.50;3.20;;;17.10;99.90;;;;;;5098206;28;20162;-81
2023/09/20 07:11:12;;;;;;;3.43;3.13;;;17.20;99.90;;;;;;5096343;28;20270;-80
2023/09/20 07:13:37;;;;;;;6.80;3.70;;;17.30;99.90;;;;;;5095303;28;20167;-81
2023/09/20 07:16:08;;;;;;;3.37;3.07;;;17.40;99.90;;;;;;5090254;28;20186;-78
2023/09/20 07:18:35;;;;;;;7.10;4.30;;;17.40;99.90;;;;;;5089486;28;20515;-80
2023/09/20 07:21:02;;;;;;;3.90;3.50;;;17.50;99.90;;;;;;5088607;28;20186;-80
2023/09/20 07:23:30;;;;;;;6.93;3.83;;;17.60;99.90;;;;;;5087448;28;20218;-79
2023/09/20 07:25:55;;;;;;;5.33;3.43;;;17.70;99.90;;;;;;5086836;28;20226;-78
2023/09/20 07:28:24;;;;;;;8.20;3.60;;;17.80;99.90;;;;;;5088057;28;20170;-78
2023/09/20 07:30:50;;;;;;;4.73;3.87;;;17.80;99.90;;;;;;5084417;28;20171;-78
2023/09/20 07:33:23;;;;;;;5.20;3.03;;;17.70;99.90;;;;;;5087331;28;20182;-79
2023/09/20 07:36:01;;;;;;;4.20;2.97;;;17.80;99.90;;;;;;5090738;28;20160;-80
2023/09/20 07:38:28;;;;;;;3.07;2.77;;;17.90;99.90;;;;;;5089535;28;20209;-79
2023/09/20 07:41:09;;;;;;;4.13;2.57;;;18.00;99.90;;;;;;5091541;28;20193;-80
2023/09/20 07:43:38;;;;;;;2.80;2.60;;;18.10;99.90;;;;;;5089146;28;20155;-79
2023/09/20 07:46:06;;;;;;;2.80;2.33;;;18.20;99.90;;;;;;5081624;28;20171;-78
2023/09/20 07:48:33;;;;;;;2.50;2.40;;;18.20;99.90;;;;;;5086941;28;20182;-79
2023/09/20 07:50:59;;;;;;;3.20;2.30;;;18.30;99.90;;;;;;5095594;28;20193;-80
2023/09/20 07:53:26;;;;;;;3.17;2.87;;;18.30;99.90;;;;;;5100457;28;20164;-80
2023/09/20 07:56:00;;;;;;;8.93;2.50;;;18.30;99.90;;;;;;5095477;28;20631;-80
2023/09/20 07:58:26;;;;;;;2.60;2.40;;;18.30;99.90;;;;;;5081447;28;20166;-78
2023/09/20 08:00:56;;;;;;;4.90;2.50;;;18.40;99.90;;;;;;5080137;28;20243;-79
2023/09/20 08:03:23;;;;;;;2.10;2.00;;;18.60;99.90;;;;;;5079625;28;20199;-80
2023/09/20 08:05:50;;;;;;;2.17;2.07;;;18.70;99.90;;;;;;5081028;28;20171;-78
2023/09/20 08:08:16;;;;;;;5.37;2.53;;;18.80;99.90;;;;;;5086156;28;20236;-81
2023/09/20 08:10:44;;;;;;;2.93;2.00;;;18.90;99.90;;;;;;5078205;28;20257;-80
2023/09/20 08:13:12;;;;;;;5.47;2.37;;;19.00;99.90;;;;;;5091484;28;20171;-79
2023/09/20 08:15:42;;;;;;;4.90;2.47;;;19.00;99.90;;;;;;5089629;28;20248;-80
2023/09/20 08:20:56;;;;;;;2.60;2.40;;;19.00;99.90;;;;;;5077104;28;20507;-80
2023/09/20 09:02:16;;;;;;;2.30;2.10;;;20.30;99.90;;;;;;5055681;28;20225;-79
2023/09/20 09:04:53;;;;;;;2.20;2.10;;;20.30;99.90;;;;;;5056829;28;20167;-79
2023/09/20 09:07:22;;;;;;;2.03;1.90;;;20.40;99.90;;;;;;5037623;28;20211;-78
2023/09/20 09:09:49;;;;;;;2.40;1.93;;;20.40;99.90;;;;;;5055454;28;20176;-80
2023/09/20 09:12:15;;;;;;;2.87;2.00;;;20.50;99.90;;;;;;5054943;28;20164;-80
2023/09/20 09:14:42;;;;;;;1.93;1.70;;;20.50;99.90;;;;;;5055374;28;20175;-79
2023/09/20 09:17:09;;;;;;;2.00;1.90;;;20.60;99.90;;;;;;5060990;28;20536;-81
2023/09/20 09:19:37;;;;;;;2.17;1.97;;;20.70;99.90;;;;;;5058385;28;20176;-80
2023/09/20 09:22:03;;;;;;;2.40;2.20;;;20.80;99.90;;;;;;5055734;28;20230;-80
2023/09/20 09:24:45;;;;;;;2.77;2.07;;;20.70;99.90;;;;;;5055580;28;20199;-81
2023/09/20 09:27:11;;;;;;;2.23;2.13;;;20.70;99.90;;;;;;5055842;28;20235;-80
2023/09/20 09:29:38;;;;;;;4.30;2.20;;;20.80;99.90;;;;;;5055759;28;20175;-79
2023/09/20 09:32:04;;;;;;;2.40;2.30;;;20.90;99.90;;;;;;5057681;28;20539;-77
2023/09/20 09:34:31;;;;;;;2.17;2.00;;;21.00;99.90;;;;;;5055373;28;20176;-79
2023/09/20 09:36:57;;;;;;;2.67;2.30;;;21.00;99.90;;;;;;5054887;28;20317;-80
2023/09/20 09:39:25;;;;;;;2.40;2.20;;;21.10;99.90;;;;;;5055112;28;20172;-79
2023/09/20 09:41:51;;;;;;;2.30;2.10;;;21.10;99.90;;;;;;5054887;28;20639;-81
2023/09/20 09:44:17;;;;;;;2.30;2.20;;;21.20;99.90;;;;;;5056079;28;20190;-80
2023/09/20 09:46:44;;;;;;;2.13;2.03;;;21.30;99.90;;;;;;5061138;28;20199;-78
2023/09/20 09:49:18;;;;;;;2.20;2.00;;;21.20;99.90;;;;;;5054938;28;20598;-79
2023/09/20 09:51:45;;;;;;;2.33;2.10;;;21.20;99.90;;;;;;5055706;28;20156;-79
2023/09/20 09:54:15;;;;;;;4.90;2.20;;;21.20;99.90;;;;;;5055914;28;20230;-78
2023/09/20 09:56:41;;;;;;;2.50;2.10;;;21.20;99.90;;;;;;5054486;28;20262;-79
2023/09/20 09:59:07;;;;;;;1.83;1.73;;;21.30;99.90;;;;;;5054843;28;20171;-79
2023/09/20 10:01:38;;;;;;;2.57;1.90;;;21.30;99.90;;;;;;5037362;28;20408;-80
2023/09/20 10:04:07;;;;;;;1.90;1.80;;;21.40;99.90;;;;;;5054124;28;20156;-79
2023/09/20 10:06:37;;;;;;;1.73;1.63;;;21.40;99.90;;;;;;5054799;28;20212;-78
2023/09/20 10:09:12;;;;;;;1.80;1.70;;;21.40;99.90;;;;;;5061451;28;20175;-78
2023/09/20 10:11:42;;;;;;;2.13;1.73;;;21.40;99.90;;;;;;5055335;28;20205;-76
2023/09/20 10:14:10;;;;;;;3.63;1.83;;;21.40;99.90;;;;;;5055357;28;20164;-79
2023/09/20 10:16:39;;;;;;;2.07;1.87;;;21.50;99.90;;;;;;5067739;28;20186;-80
2023/09/20 10:19:15;;;;;;;2.23;1.90;;;21.50;99.90;;;;;;5064799;28;20204;-81
2023/09/20 10:22:09;;;;;;;1.77;1.67;;;21.70;99.90;;;;;;5055026;28;20160;-81
2023/09/20 10:25:00;;;;;;;2.17;2.00;;;21.80;99.90;;;;;;5065041;28;20214;-80
2023/09/20 10:27:30;;;;;;;3.10;2.00;;;21.80;99.90;;;;;;5054255;28;20224;-79
2023/09/20 10:30:09;;;;;;;6.50;2.40;;;21.70;99.90;;;;;;5054497;28;20199;-80
2023/09/20 10:32:38;;;;;;;3.13;2.57;;;21.70;99.90;;;;;;5056063;28;20156;-80
2023/09/20 10:35:29;;;;;;;2.23;1.77;;;21.70;99.90;;;;;;5047853;28;20188;-77
2023/09/20 10:38:20;;;;;;;2.07;1.73;;;21.80;99.90;;;;;;5054707;28;20156;-78
2023/09/20 10:40:51;;;;;;;1.67;1.67;;;21.90;99.90;;;;;;5054517;28;20623;-79
2023/09/20 10:43:25;;;;;;;2.40;2.20;;;21.80;99.90;;;;;;5054148;28;20266;-80
2023/09/20 10:45:53;;;;;;;1.87;1.60;;;21.80;99.90;;;;;;5054084;28;20167;-79
2023/09/20 10:48:27;;;;;;;1.60;1.50;;;21.90;99.90;;;;;;5053933;28;20207;-79
2023/09/20 10:50:57;;;;;;;1.83;1.73;;;21.90;99.90;;;;;;5053953;28;20163;-79
2023/09/20 10:53:52;;;;;;;1.87;1.77;;;21.90;99.90;;;;;;5054203;28;20171;-80
2023/09/20 10:56:53;;;;;;;2.13;1.90;;;22.00;99.90;;;;;;5069422;28;20689;-79
2023/09/20 10:59:25;;;;;;;2.00;1.90;;;21.90;99.90;;;;;;5055919;28;20217;-81
2023/09/20 11:01:59;;;;;;;2.77;1.80;;;21.90;99.90;;;;;;5054595;28;20172;-79
2023/09/20 11:04:25;;;;;;;1.70;1.60;;;21.90;99.90;;;;;;5036512;28;20259;-79
2023/09/20 11:06:52;;;;;;;3.03;1.90;;;21.90;99.90;;;;;;5061240;28;20237;-81
2023/09/20 11:09:20;;;;;;;1.80;1.63;;;21.90;99.90;;;;;;5069396;28;20628;-81
2023/09/20 11:11:47;;;;;;;2.00;1.90;;;22.00;99.90;;;;;;5058527;28;20172;-80
2023/09/20 11:14:13;;;;;;;1.83;1.73;;;22.10;99.90;;;;;;5058065;28;20167;-79
2023/09/20 11:16:42;;;;;;;2.10;1.67;;;22.20;99.90;;;;;;5039657;28;20268;-78
2023/09/20 11:19:11;;;;;;;1.70;1.70;;;22.10;99.90;;;;;;5057580;28;20263;-79
2023/09/20 11:21:42;;;;;;;1.77;1.67;;;22.10;99.90;;;;;;5057364;28;20194;-79
2023/09/20 11:24:10;;;;;;;1.73;1.63;;;22.10;99.90;;;;;;5057252;28;20168;-77
2023/09/20 11:26:36;;;;;;;3.10;1.67;;;22.10;99.90;;;;;;5057153;28;20676;-79
2023/09/20 11:29:04;;;;;;;3.97;1.80;;;22.10;99.90;;;;;;5039404;28;20262;-80
2023/09/20 11:31:32;;;;;;;2.90;2.20;;;22.20;99.90;;;;;;5057641;28;20160;-80
2023/09/20 11:34:03;;;;;;;4.77;2.10;;;22.30;99.90;;;;;;5057408;28;20168;-80
2023/09/20 11:36:39;;;;;;;3.10;2.90;;;22.50;99.90;;;;;;5064320;28;20223;-79
2023/09/20 11:39:06;;;;;;;2.97;2.40;;;22.60;99.90;;;;;;5069798;28;20638;-78
2023/09/20 11:41:32;;;;;;;2.70;2.50;;;22.60;99.90;;;;;;5058233;28;20226;-78
2023/09/20 11:44:00;;;;;;;2.20;2.00;;;22.60;99.90;;;;;;5057277;28;20254;-81
2023/09/20 11:46:33;;;;;;;2.77;2.00;;;22.60;99.90;;;;;;5056384;28;20676;-77
2023/09/20 11:49:00;;;;;;;2.07;1.80;;;22.70;99.90;;;;;;5056827;28;20175;-79
2023/09/20 11:51:29;;;;;;;1.92;1.83;;;22.70;99.90;;;;;;5056828;28;20168;-79
2023/09/20 11:53:56;;;;;;;2.13;2.03;;;22.70;99.90;;;;;;5064131;28;20172;-79
2023/09/20 11:56:31;;;;;;;3.63;2.07;;;22.70;99.90;;;;;;5061425;28;20172;-78
2023/09/20 11:59:10;;;;;;;5.40;1.70;;;22.80;99.90;;;;;;5063920;28;20155;-78
2023/09/20 12:01:41;;;;;;;1.80;1.70;;;22.80;99.90;;;;;;5063820;28;20239;-78
2023/09/20 12:04:08;;;;;;;2.00;1.90;;;22.80;99.90;;;;;;5057170;28;20251;-80
2023/09/20 12:06:35;;;;;;;2.45;2.17;;;22.90;99.90;;;;;;5057191;28;20286;-78
2023/09/20 12:09:01;;;;;;;1.80;1.70;;;23.00;99.90;;;;;;5056170;28;20168;-78
2023/09/20 12:11:28;;;;;;;2.33;1.80;;;22.90;99.90;;;;;;5056645;28;20255;-78
2023/09/20 12:13:54;;;;;;;1.80;1.70;;;23.00;99.90;;;;;;5056921;28;20179;-79
2023/09/20 12:16:23;;;;;;;2.10;1.88;;;23.10;99.90;;;;;;5058142;28;20176;-77
2023/09/20 12:18:50;;;;;;;2.63;2.10;;;23.00;99.90;;;;;;5060573;28;20170;-80
2023/09/20 12:21:16;;;;;;;4.78;1.92;;;23.00;99.90;;;;;;5042555;28;20178;-79
2023/09/20 12:23:42;;;;;;;1.80;1.70;;;23.00;99.90;;;;;;5038277;28;20180;-79
2023/09/20 12:26:08;;;;;;;2.00;1.90;;;23.00;99.90;;;;;;5055697;28;20212;-78
2023/09/20 12:28:35;;;;;;;3.00;1.92;;;23.10;99.90;;;;;;5055844;28;20180;-77
2023/09/20 12:31:03;;;;;;;2.72;2.03;;;23.10;99.90;;;;;;5056308;28;20181;-79
2023/09/20 12:33:29;;;;;;;2.40;1.98;;;23.10;99.90;;;;;;5057061;28;20638;-80
2023/09/20 12:35:55;;;;;;;4.57;1.80;;;23.10;99.90;;;;;;5062653;28;20171;-79
2023/09/20 12:38:22;;;;;;;2.75;1.98;;;23.10;99.90;;;;;;5057475;28;20172;-79
2023/09/20 12:40:48;;;;;;;2.08;1.92;;;23.20;99.90;;;;;;5044071;28;20662;-79
2023/09/20 12:43:18;;;;;;;3.55;2.10;;;23.20;99.90;;;;;;5072170;28;20176;-79
2023/09/20 12:45:44;;;;;;;3.63;2.30;;;23.20;99.90;;;;;;5074658;28;20188;-79
2023/09/20 12:48:11;;;;;;;3.10;2.42;;;23.30;99.90;;;;;;5057753;28;20705;-80
2023/09/20 12:50:37;;;;;;;3.67;2.20;;;23.30;99.90;;;;;;5056126;28;20172;-79
2023/09/20 12:53:08;;;;;;;2.58;2.30;;;23.40;99.90;;;;;;5055984;28;20225;-80
2023/09/20 12:55:38;;;;;;;1.98;1.85;;;23.40;99.90;;;;;;5056004;28;20167;-80
2023/09/20 12:58:10;;;;;;;5.25;2.10;;;23.40;99.90;;;;;;5056363;28;20165;-78
2023/09/20 13:00:37;;;;;;;5.88;2.25;;;23.40;99.90;;;;;;5045861;28;20179;-81
2023/09/20 13:03:06;;;;;;;4.00;2.30;;;23.40;99.90;;;;;;5064135;28;20202;-80
2023/09/20 13:05:32;;;;;;;2.95;2.08;;;23.50;99.90;;;;;;5050886;28;20516;-80
2023/09/20 13:07:59;;;;;;;1.90;1.85;;;23.50;99.90;;;;;;5055350;28;20563;-79
2023/09/20 13:10:26;;;;;;;2.83;2.25;;;23.50;99.90;;;;;;5055834;28;20258;-78
2023/09/20 13:12:52;;;;;;;3.50;3.13;;;23.50;99.90;;;;;;5055470;28;20176;-78
2023/09/20 13:15:19;;;;;;;3.88;2.50;;;23.50;99.90;;;;;;5055315;28;20562;-77
2023/09/20 13:17:48;;;;;;;2.45;2.28;;;23.60;99.90;;;;;;5038036;28;20179;-77
2023/09/20 13:20:14;;;;;;;3.08;2.80;;;23.50;99.90;;;;;;5058491;28;20174;-77
2023/09/20 13:22:45;;;;;;;3.88;2.22;;;22.80;99.90;;;;;;5066942;28;20176;-77
2023/09/20 13:25:14;;;;;;;2.47;2.28;;;23.40;99.90;;;;;;5059681;28;20515;-79
2023/09/20 13:27:40;;;;;;;2.10;2.00;;;23.30;99.90;;;;;;5057553;28;20295;-79
2023/09/20 13:30:13;;;;;;;2.15;2.05;;;23.30;99.90;;;;;;5057958;28;20200;-79
2023/09/20 13:32:40;;;;;;;4.55;2.58;;;23.40;99.90;;;;;;5053154;28;20512;-80
2023/09/20 13:35:10;;;;;;;4.68;2.28;;;23.40;99.90;;;;;;5036824;28;20183;-80
2023/09/20 13:37:40;;;;;;;5.45;2.25;;;23.50;99.90;;;;;;5064386;28;20160;-81